Time;durP1;ratioP1;P1;durP2;ratioP2;P2;SDS_P1;SDS_P2;PMS_P1;PMS_P2;Temp;Humidity;BMP_temperature;BMP_pressure;BME280_temperature;BME280_humidity;BME280_pressure;Samples;Min_cycle;Max_cycle;Signal;HPM_P1;HPM_P2
2022/05/19 00:01:51;;;;;;;;;;;;;;;22.24;48.27;101826.56;6128713;23;19913;-84
2022/05/19 00:04:16;;;;;;;;;;;;;;;22.23;47.95;101833.53;6102914;23;19916;-83
2022/05/19 00:06:42;;;;;;;;;;;;;;;22.23;48.32;101824.81;6127883;23;19943;-83
2022/05/19 00:09:07;;;;;;;;;;;;;;;22.24;48.30;101819.53;6102008;23;19979;-84
2022/05/19 00:11:33;;;;;;;;;;;;;;;22.24;48.35;101821.31;6127450;23;19982;-82
2022/05/19 00:13:59;;;;;;;;;;;;;;;22.22;48.23;101821.31;6127663;23;19968;-83
2022/05/19 00:16:24;;;;;;;;;;;;;;;22.23;48.36;101816.94;6101551;23;20322;-83
2022/05/19 00:18:49;;;;;;;;;;;;;;;22.23;48.30;101817.78;6101555;23;19913;-83
2022/05/19 00:21:14;;;;;;;;;;;;;;;22.23;48.32;101812.56;6077555;23;19913;-83
2022/05/19 00:23:40;;;;;;;;;;;;;;;22.24;48.27;101813.44;6127681;23;20349;-83
2022/05/19 00:26:05;;;;;;;;;;;;;;;22.24;48.56;101809.06;6078042;23;20237;-81
2022/05/19 00:28:30;;;;;;;;;;;;;;;22.26;48.52;101809.06;6127635;23;19916;-83
2022/05/19 00:30:55;;;;;;;;;;;;;;;22.25;48.41;101805.53;6101430;23;19917;-83
2022/05/19 00:33:21;;;;;;;;;;;;;;;22.24;48.42;101800.34;6127725;23;19991;-83
2022/05/19 00:35:46;;;;;;;;;;;;;;;22.23;48.46;101802.06;6077725;23;19913;-82
2022/05/19 00:38:11;;;;;;;;;;;;;;;22.23;48.44;101798.59;6101766;23;19913;-83
2022/05/19 00:40:37;;;;;;;;;;;;;;;22.23;48.78;101796.81;6101524;23;19995;-82
2022/05/19 00:43:03;;;;;;;;;;;;;;;22.24;48.87;101795.94;6101668;23;19920;-83
2022/05/19 00:45:36;;;;;;;;;;;;;;;22.25;48.67;101791.56;6127670;23;19987;-83
2022/05/19 00:48:04;;;;;;;;;;;;;;;22.24;48.93;101792.47;6102147;23;20280;-83
2022/05/19 00:50:35;;;;;;;;;;;;;;;22.24;48.63;101777.59;6101585;23;19913;-83
2022/05/19 00:53:07;;;;;;;;;;;;;;;22.26;48.88;101785.44;6126514;23;19936;-83
2022/05/19 00:55:47;;;;;;;;;;;;;;;22.25;48.78;101781.94;6103521;23;19939;-83
2022/05/19 00:58:19;;;;;;;;;;;;;;;22.25;48.98;101784.56;6103413;23;20377;-83
2022/05/19 01:00:45;;;;;;;;;;;;;;;22.24;48.69;101785.47;6129176;23;19995;-83
2022/05/19 01:03:12;;;;;;;;;;;;;;;22.22;48.97;101774.13;6103463;23;20357;-83
2022/05/19 01:05:40;;;;;;;;;;;;;;;22.23;48.89;101775.00;6129695;23;20306;-83
2022/05/19 01:08:25;;;;;;;;;;;;;;;22.23;49.11;101775.00;6103540;23;20241;-83
2022/05/19 01:10:50;;;;;;;;;;;;;;;22.23;49.01;101770.59;6128883;23;19923;-83
2022/05/19 01:13:16;;;;;;;;;;;;;;;22.23;48.97;101767.97;6129397;23;20039;-83
2022/05/19 01:15:44;;;;;;;;;;;;;;;22.23;49.24;101767.13;6103275;23;19932;-83
2022/05/19 01:18:11;;;;;;;;;;;;;;;22.24;49.28;101761.88;6103215;23;19909;-83
2022/05/19 01:20:38;;;;;;;;;;;;;;;22.23;49.16;101752.25;6103182;23;19909;-83
2022/05/19 01:23:32;;;;;;;;;;;;;;;22.23;49.15;101741.75;6103555;23;19985;-83
2022/05/19 01:26:00;;;;;;;;;;;;;;;22.22;49.34;101747.91;6075591;23;19910;-83
2022/05/19 01:28:25;;;;;;;;;;;;;;;22.23;49.25;101728.66;6102909;23;19909;-83
2022/05/19 01:30:51;;;;;;;;;;;;;;;22.22;49.51;101724.31;6103149;23;19916;-83
2022/05/19 01:33:16;;;;;;;;;;;;;;;22.23;49.22;101725.19;6103367;23;19921;-83
2022/05/19 01:35:41;;;;;;;;;;;;;;;22.22;49.42;101712.94;6128926;23;19913;-83
2022/05/19 01:38:12;;;;;;;;;;;;;;;22.24;49.29;101714.66;6129230;23;19909;-83
2022/05/19 01:40:57;;;;;;;;;;;;;;;22.24;49.39;101714.66;6129169;23;20318;-83
2022/05/19 01:43:32;;;;;;;;;;;;;;;22.23;49.55;101707.69;6129097;23;19909;-83
2022/05/19 01:46:03;;;;;;;;;;;;;;;22.22;49.29;101700.72;6103101;23;19913;-83
2022/05/19 01:48:28;;;;;;;;;;;;;;;22.23;49.38;101702.44;6129369;23;20318;-82
2022/05/19 01:50:54;;;;;;;;;;;;;;;22.24;49.29;101701.56;6102776;23;19947;-84
2022/05/19 01:53:22;;;;;;;;;;;;;;;22.25;49.51;101694.56;6103251;23;19947;-83
2022/05/19 01:55:53;;;;;;;;;;;;;;;22.25;49.31;101694.56;6102905;23;19955;-83
2022/05/19 01:58:26;;;;;;;;;;;;;;;22.25;49.38;101698.03;6129002;23;19916;-83
2022/05/19 02:00:54;;;;;;;;;;;;;;;22.25;49.37;101702.41;6102774;23;19913;-83
2022/05/19 02:03:24;;;;;;;;;;;;;;;22.25;49.52;101703.28;6128508;23;19909;-76
2022/05/19 02:05:58;;;;;;;;;;;;;;;22.27;49.48;101706.75;6126258;23;19960;-76
2022/05/19 02:08:27;;;;;;;;;;;;;;;22.27;49.58;101706.75;6128958;23;19909;-76
2022/05/19 02:10:53;;;;;;;;;;;;;;;22.27;49.40;101703.25;6128032;23;20356;-76
2022/05/19 02:13:20;;;;;;;;;;;;;;;22.25;49.72;101697.19;6128437;23;19995;-76
2022/05/19 02:15:46;;;;;;;;;;;;;;;22.26;49.63;101691.91;6102565;23;19908;-76
2022/05/19 02:18:12;;;;;;;;;;;;;;;22.26;49.64;101684.06;6102553;23;20246;-75
2022/05/19 02:20:39;;;;;;;;;;;;;;;22.28;49.46;101686.66;6128530;23;19909;-76
2022/05/19 02:23:05;;;;;;;;;;;;;;;22.27;49.65;101685.78;6128744;23;19909;-76
2022/05/19 02:25:35;;;;;;;;;;;;;;;22.25;49.57;101682.31;6128099;23;19920;-76
2022/05/19 02:28:04;;;;;;;;;;;;;;;22.26;49.72;101694.53;6102132;23;20230;-76
2022/05/19 02:30:31;;;;;;;;;;;;;;;22.27;49.57;101687.53;6128644;23;20221;-76
2022/05/19 02:32:56;;;;;;;;;;;;;;;22.27;49.75;101688.38;6102366;23;19987;-76
2022/05/19 02:35:22;;;;;;;;;;;;;;;22.27;49.84;101684.91;6128418;23;20365;-75
2022/05/19 02:37:47;;;;;;;;;;;;;;;22.29;49.76;101689.25;6128261;23;19916;-75
2022/05/19 02:40:15;;;;;;;;;;;;;;;22.29;49.72;101685.75;6128749;23;20238;-75
2022/05/19 02:42:40;;;;;;;;;;;;;;;22.29;49.97;101686.63;6128061;23;19983;-75
2022/05/19 02:45:05;;;;;;;;;;;;;;;22.29;49.75;101707.59;6128380;23;19916;-75
2022/05/19 02:47:31;;;;;;;;;;;;;;;22.31;49.68;101739.03;6102544;23;19913;-75
2022/05/19 02:49:57;;;;;;;;;;;;;;;22.34;49.95;101791.44;6102331;23;19921;-75
2022/05/19 02:52:22;;;;;;;;;;;;;;;22.31;49.62;101762.66;6127999;23;19980;-75
2022/05/19 02:54:47;;;;;;;;;;;;;;;22.26;49.93;101728.63;6101940;23;19987;-75
2022/05/19 02:57:12;;;;;;;;;;;;;;;22.24;50.32;101733.03;6102205;23;19966;-76
2022/05/19 02:59:38;;;;;;;;;;;;;;;22.34;50.26;101741.59;6128014;23;19913;-75
2022/05/19 03:02:03;;;;;;;;;;;;;;;22.36;49.93;101740.72;6102548;23;19936;-75
2022/05/19 03:04:29;;;;;;;;;;;;;;;22.37;50.23;101752.94;6128070;23;19979;-76
2022/05/19 03:06:54;;;;;;;;;;;;;;;22.39;50.04;101779.13;6127975;23;19992;-75
2022/05/19 03:09:21;;;;;;;;;;;;;;;22.39;50.16;101774.75;6101838;23;19920;-76
2022/05/19 03:11:46;;;;;;;;;;;;;;;22.40;49.90;101788.72;6127490;23;19948;-76
2022/05/19 03:14:11;;;;;;;;;;;;;;;22.40;49.93;101804.47;6128102;23;19920;-75
2022/05/19 03:16:38;;;;;;;;;;;;;;;22.39;49.99;101816.72;6127912;23;19909;-75
2022/05/19 03:19:03;;;;;;;;;;;;;;;22.39;50.08;101816.72;6127969;23;19909;-76
2022/05/19 03:21:28;;;;;;;;;;;;;;;22.39;50.11;101821.97;6127712;23;20322;-76
2022/05/19 03:23:54;;;;;;;;;;;;;;;22.39;50.00;101815.84;6128197;23;19960;-76
2022/05/19 03:26:19;;;;;;;;;;;;;;;22.40;50.07;101841.16;6127614;23;19916;-75
2022/05/19 03:28:44;;;;;;;;;;;;;;;22.41;49.96;101855.16;6127785;23;19916;-76
2022/05/19 03:31:10;;;;;;;;;;;;;;;22.41;49.71;101855.16;6077545;23;19921;-75
2022/05/19 03:33:35;;;;;;;;;;;;;;;22.40;49.97;101854.28;6127541;23;19909;-75
2022/05/19 03:36:01;;;;;;;;;;;;;;;22.40;49.86;101851.66;6127463;23;19913;-76
2022/05/19 03:38:27;;;;;;;;;;;;;;;22.39;50.10;101836.84;6127906;23;20238;-76
2022/05/19 03:40:52;;;;;;;;;;;;;;;22.39;49.99;101832.44;6101632;23;19913;-75
2022/05/19 03:43:18;;;;;;;;;;;;;;;22.40;49.89;101846.41;6127491;23;20003;-75
2022/05/19 03:45:43;;;;;;;;;;;;;;;22.40;49.89;101854.28;6101970;23;19920;-76
2022/05/19 03:48:08;;;;;;;;;;;;;;;22.40;49.91;101862.16;6128706;23;20318;-75
2022/05/19 03:50:34;;;;;;;;;;;;;;;22.40;49.90;101891.00;6128497;23;19936;-75
2022/05/19 03:52:59;;;;;;;;;;;;;;;22.41;49.83;101894.47;6128993;23;19987;-76
2022/05/19 03:55:25;;;;;;;;;;;;;;;22.41;49.85;101891.88;6128325;23;19948;-75
2022/05/19 03:57:50;;;;;;;;;;;;;;;22.40;50.03;101885.75;6101980;23;19909;-76
2022/05/19 04:00:15;;;;;;;;;;;;;;;22.41;49.89;101905.88;6127686;23;19916;-76
2022/05/19 04:02:41;;;;;;;;;;;;;;;22.41;50.03;101905.88;6101655;23;19917;-76
2022/05/19 04:05:07;;;;;;;;;;;;;;;22.41;49.90;101910.22;6101803;23;20318;-76
2022/05/19 04:07:32;;;;;;;;;;;;;;;22.41;50.03;101907.59;6127297;23;19909;-76
2022/05/19 04:09:58;;;;;;;;;;;;;;;22.41;49.93;101904.97;6101413;23;20238;-76
2022/05/19 04:12:23;;;;;;;;;;;;;;;22.42;50.18;101914.59;6101345;23;19921;-76
2022/05/19 04:14:49;;;;;;;;;;;;;;;22.41;50.12;101911.13;6127656;23;19916;-76
2022/05/19 04:17:14;;;;;;;;;;;;;;;22.41;50.08;101902.34;6101770;23;19909;-76
2022/05/19 04:19:40;;;;;;;;;;;;;;;22.41;49.91;101889.25;6101388;23;19924;-76
2022/05/19 04:22:05;;;;;;;;;;;;;;;22.39;49.97;101882.28;6127293;23;19940;-76
2022/05/19 04:24:30;;;;;;;;;;;;;;;22.40;49.89;101880.50;6127383;23;19913;-76
2022/05/19 04:26:56;;;;;;;;;;;;;;;22.40;49.86;101867.41;6101388;23;19905;-76
2022/05/19 04:29:22;;;;;;;;;;;;;;;22.41;50.08;101855.16;6127294;23;20318;-77
2022/05/19 04:31:47;;;;;;;;;;;;;;;22.40;49.93;101846.41;6127729;23;19953;-80
2022/05/19 04:34:12;;;;;;;;;;;;;;;22.40;50.04;101830.69;6127446;23;19964;-78
2022/05/19 04:36:37;;;;;;;;;;;;;;;22.39;49.98;101829.81;6101567;23;19964;-84
2022/05/19 04:39:03;;;;;;;;;;;;;;;22.40;49.97;101825.44;6101485;23;19952;-79
2022/05/19 04:41:29;;;;;;;;;;;;;;;22.40;49.90;101828.06;6101158;23;19932;-77
2022/05/19 04:43:54;;;;;;;;;;;;;;;22.41;50.06;101836.78;6077353;23;19920;-77
2022/05/19 04:46:19;;;;;;;;;;;;;;;22.41;49.85;101839.41;6127426;23;19916;-78
2022/05/19 04:48:44;;;;;;;;;;;;;;;22.41;50.08;101831.53;6101602;23;19916;-77
2022/05/19 04:51:10;;;;;;;;;;;;;;;22.40;49.88;101822.81;6101198;23;20318;-77
2022/05/19 04:53:35;;;;;;;;;;;;;;;22.39;50.02;101832.44;6077587;23;20341;-78
2022/05/19 04:56:01;;;;;;;;;;;;;;;22.47;49.63;101824.47;6077137;23;20301;-75
2022/05/19 04:58:26;;;;;;;;;;;;;;;22.45;50.10;101817.50;6127456;23;19996;-75
2022/05/19 05:00:52;;;;;;;;;;;;;;;22.44;50.31;101807.91;6127223;23;19913;-75
2022/05/19 05:03:17;;;;;;;;;;;;;;;22.44;50.20;101819.25;6127373;23;20250;-75
2022/05/19 05:05:42;;;;;;;;;;;;;;;22.47;50.21;101823.59;6127125;23;19909;-76
2022/05/19 05:08:07;;;;;;;;;;;;;;;22.49;50.49;101813.94;6077335;23;20218;-75
2022/05/19 05:10:33;;;;;;;;;;;;;;;22.43;50.86;101812.31;6100788;23;19917;-75
2022/05/19 05:13:09;;;;;;;;;;;;;;;22.36;51.02;101813.25;6101019;23;19955;-75
2022/05/19 05:15:34;;;;;;;;;;;;;;;22.23;52.70;101793.34;6101175;23;19916;-78
2022/05/19 05:18:00;;;;;;;;;;;;;;;22.17;53.33;101789.91;6101253;23;19909;-78
2022/05/19 05:20:25;;;;;;;;;;;;;;;22.16;53.81;101777.66;6077081;23;19992;-78
2022/05/19 05:22:50;;;;;;;;;;;;;;;22.15;54.24;101777.69;6127727;23;19932;-77
2022/05/19 05:25:16;;;;;;;;;;;;;;;22.13;54.47;101774.22;6127226;23;19913;-78
2022/05/19 05:27:41;;;;;;;;;;;;;;;22.09;54.98;101762.91;6101132;23;19992;-77
2022/05/19 05:30:08;;;;;;;;;;;;;;;22.04;55.22;101758.63;6101062;23;19909;-78
2022/05/19 05:32:33;;;;;;;;;;;;;;;22.03;55.47;101756.88;6101097;23;19956;-77
2022/05/19 05:34:59;;;;;;;;;;;;;;;22.03;55.60;101757.75;6101125;23;19909;-78
2022/05/19 05:37:24;;;;;;;;;;;;;;;22.06;55.78;101746.34;6077072;23;19989;-78
2022/05/19 05:39:49;;;;;;;;;;;;;;;22.04;56.27;101738.53;6077392;23;19948;-77
2022/05/19 05:42:14;;;;;;;;;;;;;;;22.02;55.92;101734.19;6102746;23;19913;-77
2022/05/19 05:44:40;;;;;;;;;;;;;;;22.03;56.03;101735.91;6128854;23;19913;-77
2022/05/19 05:47:05;;;;;;;;;;;;;;;22.00;56.31;101723.72;6102884;23;19912;-78
2022/05/19 05:49:30;;;;;;;;;;;;;;;22.04;55.99;101722.81;6103052;23;20371;-79
2022/05/19 05:51:56;;;;;;;;;;;;;;;22.08;56.34;101708.78;6103139;23;19913;-84
2022/05/19 05:54:21;;;;;;;;;;;;;;;22.05;56.56;101714.03;6079108;23;19924;-85
2022/05/19 05:56:46;;;;;;;;;;;;;;;22.04;56.48;101719.31;6079139;23;19913;-82
2022/05/19 05:59:11;;;;;;;;;;;;;;;22.18;55.40;101718.22;6078732;23;20322;-94
2022/05/19 06:01:37;;;;;;;;;;;;;;;22.20;55.92;101718.19;6103374;23;19909;-79
2022/05/19 06:04:02;;;;;;;;;;;;;;;22.14;56.40;101727.00;6102906;23;19936;-78
2022/05/19 06:06:27;;;;;;;;;;;;;;;22.13;56.61;101724.44;6102990;23;19967;-78
2022/05/19 06:08:53;;;;;;;;;;;;;;;22.30;55.59;101724.22;6078791;23;19964;-76
2022/05/19 06:11:18;;;;;;;;;;;;;;;22.39;54.89;101709.19;6078397;23;19921;-76
2022/05/19 06:13:44;;;;;;;;;;;;;;;22.46;54.39;101711.72;6128690;23;20298;-76
2022/05/19 06:16:09;;;;;;;;;;;;;;;22.51;54.23;101712.50;6102965;23;19913;-76
2022/05/19 06:18:35;;;;;;;;;;;;;;;22.52;53.89;101712.47;6128944;23;19919;-76
2022/05/19 06:21:00;;;;;;;;;;;;;;;22.54;53.50;101717.72;6078318;23;19913;-75
2022/05/19 06:23:25;;;;;;;;;;;;;;;22.55;53.37;101716.81;6128679;23;19909;-77
2022/05/19 06:25:50;;;;;;;;;;;;;;;22.56;53.18;101721.19;6103087;23;19917;-74
2022/05/19 06:28:16;;;;;;;;;;;;;;;22.58;52.86;101727.22;6128374;23;19945;-75
2022/05/19 06:30:42;;;;;;;;;;;;;;;22.59;53.13;101728.97;6128558;23;19963;-75
2022/05/19 06:33:07;;;;;;;;;;;;;;;22.59;53.01;101736.84;6102532;23;19913;-74
2022/05/19 06:35:33;;;;;;;;;;;;;;;22.59;52.70;101749.97;6078466;23;19944;-74
2022/05/19 06:37:59;;;;;;;;;;;;;;;22.59;52.75;101765.72;6102399;23;19909;-75
2022/05/19 06:40:25;;;;;;;;;;;;;;;22.59;52.94;101771.81;6078675;23;20326;-75
2022/05/19 06:42:51;;;;;;;;;;;;;;;22.59;52.68;101776.19;6128101;23;20242;-75
2022/05/19 06:45:17;;;;;;;;;;;;;;;22.59;52.31;101782.31;6128549;23;19913;-75
2022/05/19 06:47:42;;;;;;;;;;;;;;;22.60;52.33;101775.28;6102250;23;19909;-75
2022/05/19 06:50:08;;;;;;;;;;;;;;;22.60;52.39;101759.56;6102148;23;19935;-75
2022/05/19 06:52:40;;;;;;;;;;;;;;;22.61;52.21;101761.31;6078513;23;19920;-75
2022/05/19 06:55:06;;;;;;;;;;;;;;;22.62;52.24;101747.28;6128119;23;20242;-75
2022/05/19 06:57:31;;;;;;;;;;;;;;;22.63;52.15;101756.03;6128271;23;19923;-75
2022/05/19 06:59:57;;;;;;;;;;;;;;;22.63;52.18;101738.53;6102747;23;19952;-75
2022/05/19 07:02:23;;;;;;;;;;;;;;;22.64;52.12;101742.03;6128269;23;20285;-75
2022/05/19 07:04:48;;;;;;;;;;;;;;;22.62;51.95;101742.03;6102136;23;19909;-75
2022/05/19 07:07:13;;;;;;;;;;;;;;;22.62;51.81;101755.16;6078456;23;20369;-75
2022/05/19 07:09:38;;;;;;;;;;;;;;;22.62;51.94;101767.41;6128241;23;19937;-75
2022/05/19 07:12:05;;;;;;;;;;;;;;;22.62;51.64;101788.41;6101853;23;19917;-75
2022/05/19 07:14:31;;;;;;;;;;;;;;;22.62;51.65;101814.63;6102543;23;19908;-75
2022/05/19 07:16:56;;;;;;;;;;;;;;;22.60;51.75;101796.28;6127993;23;19916;-75
2022/05/19 07:22:06;;;;;;;;;;;;;;;22.59;51.81;101784.94;6128021;23;20344;-75
2022/05/19 07:24:31;;;;;;;;;;;;;;;22.59;51.74;101768.34;6128045;23;20000;-75
2022/05/19 07:26:57;;;;;;;;;;;;;;;22.59;51.68;101756.06;6126238;23;20314;-75
2022/05/19 07:29:22;;;;;;;;;;;;;;;22.61;51.53;101749.97;6101958;23;19909;-75
2022/05/19 07:31:49;;;;;;;;;;;;;;;22.61;51.67;101747.34;6128212;23;19919;-74
2022/05/19 07:34:15;;;;;;;;;;;;;;;22.61;51.72;101739.47;6077807;23;20278;-75
2022/05/19 07:36:41;;;;;;;;;;;;;;;22.62;51.52;101738.56;6127669;23;19980;-75
2022/05/19 07:39:07;;;;;;;;;;;;;;;22.62;51.42;101735.94;6128441;23;19916;-75
2022/05/19 07:41:32;;;;;;;;;;;;;;;22.62;51.54;101749.91;6127620;23;19916;-75
2022/05/19 07:43:58;;;;;;;;;;;;;;;22.63;51.36;101767.41;6127704;23;19909;-75
2022/05/19 07:46:24;;;;;;;;;;;;;;;22.65;51.48;101767.38;6127599;23;19985;-75
2022/05/19 07:48:50;;;;;;;;;;;;;;;22.65;51.36;101759.50;6102323;23;19913;-75
2022/05/19 07:51:15;;;;;;;;;;;;;;;22.65;51.30;101763.00;6127824;23;19913;-75
2022/05/19 07:53:41;;;;;;;;;;;;;;;22.65;51.15;101776.13;6128092;23;19916;-75
2022/05/19 07:56:06;;;;;;;;;;;;;;;22.67;51.53;101789.19;6077794;23;19920;-75
2022/05/19 07:58:31;;;;;;;;;;;;;;;22.67;51.18;101787.44;6127593;23;20011;-75
2022/05/19 08:00:56;;;;;;;;;;;;;;;22.69;51.08;101792.66;6077808;23;19913;-75
2022/05/19 08:03:23;;;;;;;;;;;;;;;22.69;51.40;101800.53;6101532;23;19913;-75
2022/05/19 08:05:48;;;;;;;;;;;;;;;22.69;51.24;101806.66;6102598;23;19909;-75
2022/05/19 08:08:13;;;;;;;;;;;;;;;22.70;51.05;101783.91;6127647;23;20385;-75
2022/05/19 08:10:39;;;;;;;;;;;;;;;22.71;50.86;101773.41;6101224;23;19917;-75
2022/05/19 08:15:48;;;;;;;;;;;;;;;22.84;50.93;101755.66;6105740;23;19920;-75
2022/05/19 08:18:13;;;;;;;;;;;;;;;22.83;50.77;101764.44;6101689;23;19913;-75
2022/05/19 08:20:44;;;;;;;;;;;;;;;22.82;50.99;101764.47;6101376;23;19915;-74
2022/05/19 08:23:18;;;;;;;;;;;;;;;22.80;50.99;101777.63;6127610;23;19908;-75
2022/05/19 08:25:44;;;;;;;;;;;;;;;22.77;50.81;101782.91;6101470;23;19959;-74
2022/05/19 08:28:09;;;;;;;;;;;;;;;22.76;50.67;101786.44;6127381;23;19913;-75
2022/05/19 08:30:34;;;;;;;;;;;;;;;22.73;51.00;101758.50;6127088;23;19948;-75
2022/05/19 08:33:00;;;;;;;;;;;;;;;22.72;50.66;101734.91;6127463;23;19940;-75
2022/05/19 08:35:25;;;;;;;;;;;;;;;22.73;50.99;101728.75;6127331;23;19913;-75
2022/05/19 08:37:51;;;;;;;;;;;;;;;22.77;50.76;101741.78;6127307;23;19913;-75
2022/05/19 08:40:17;;;;;;;;;;;;;;;22.84;50.78;101739.91;6101339;23;19909;-76
2022/05/19 08:42:45;;;;;;;;;;;;;;;22.88;50.50;101727.63;6127672;23;20003;-75
2022/05/19 08:45:18;;;;;;;;;;;;;;;22.88;50.57;101710.09;6127531;23;19916;-75
2022/05/19 08:47:45;;;;;;;;;;;;;;;22.91;50.27;101710.06;6125662;23;19932;-74
2022/05/19 08:50:33;;;;;;;;;;;;;;;23.07;50.24;101704.56;6127296;23;19909;-75
2022/05/19 08:52:59;;;;;;;;;;;;;;;23.07;49.98;101689.66;6101655;23;19955;-75
2022/05/19 08:55:24;;;;;;;;;;;;;;;23.17;49.94;101672.84;6101584;23;19909;-75
2022/05/19 08:58:08;;;;;;;;;;;;;;;23.23;49.51;101648.22;6101725;23;19920;-75
2022/05/19 09:00:38;;;;;;;;;;;;;;;23.32;49.48;101662.91;6127333;23;19909;-75
2022/05/19 09:03:22;;;;;;;;;;;;;;;23.37;49.15;101679.47;6101289;23;20233;-75
2022/05/19 09:05:47;;;;;;;;;;;;;;;23.39;49.17;101703.94;6101368;23;20310;-75
2022/05/19 09:08:19;;;;;;;;;;;;;;;23.39;49.38;101710.06;6101190;23;19960;-75
2022/05/19 09:10:51;;;;;;;;;;;;;;;23.39;49.61;101706.56;6101387;23;19909;-75
2022/05/19 09:13:29;;;;;;;;;;;;;;;23.40;49.42;101718.78;6101313;23;19909;-75
2022/05/19 09:15:55;;;;;;;;;;;;;;;23.39;49.31;101719.69;6103172;23;20222;-75
2022/05/19 09:18:24;;;;;;;;;;;;;;;23.35;49.34;101729.38;6103044;23;19973;-75
2022/05/19 09:20:53;;;;;;;;;;;;;;;23.34;49.53;101724.16;6102914;23;19916;-75
2022/05/19 09:23:18;;;;;;;;;;;;;;;23.29;49.66;101726.88;6129275;23;19909;-75
2022/05/19 09:25:46;;;;;;;;;;;;;;;23.29;49.72;101726.03;6102953;23;19935;-75
2022/05/19 09:28:12;;;;;;;;;;;;;;;23.32;49.63;101728.56;6128780;23;19909;-75
2022/05/19 09:30:46;;;;;;;;;;;;;;;23.36;49.38;101723.22;6103155;23;20000;-75
2022/05/19 09:33:16;;;;;;;;;;;;;;;23.38;49.68;101718.81;6102957;23;19912;-75
2022/05/19 09:35:54;;;;;;;;;;;;;;;23.40;49.64;101727.53;6102841;23;20395;-75
2022/05/19 09:38:30;;;;;;;;;;;;;;;23.36;49.43;101736.34;6129100;23;19936;-75
2022/05/19 09:40:59;;;;;;;;;;;;;;;23.30;49.65;101720.75;6102835;23;20288;-75
2022/05/19 09:43:32;;;;;;;;;;;;;;;23.26;49.98;101731.34;6129075;23;19963;-75
2022/05/19 09:46:07;;;;;;;;;;;;;;;23.21;49.82;101731.41;6129060;23;19909;-75
2022/05/19 09:48:34;;;;;;;;;;;;;;;23.20;49.81;101722.66;6128921;23;19912;-75
2022/05/19 09:51:04;;;;;;;;;;;;;;;23.20;49.70;101717.41;6128575;23;19913;-75
2022/05/19 09:53:35;;;;;;;;;;;;;;;23.22;49.95;101713.91;6102969;23;20326;-75
2022/05/19 09:56:03;;;;;;;;;;;;;;;23.23;49.70;101713.88;6128891;23;19909;-75
2022/05/19 09:58:34;;;;;;;;;;;;;;;23.22;49.97;101704.25;6128953;23;20310;-75
2022/05/19 10:01:04;;;;;;;;;;;;;;;23.23;49.61;101703.34;6129054;23;19989;-75
2022/05/19 10:03:43;;;;;;;;;;;;;;;23.25;49.88;101692.84;6129416;23;19909;-75
2022/05/19 10:06:14;;;;;;;;;;;;;;;23.26;49.68;101690.19;6127119;23;19909;-75
2022/05/19 10:08:41;;;;;;;;;;;;;;;23.28;49.55;101693.66;6128610;23;19909;-75
2022/05/19 10:11:21;;;;;;;;;;;;;;;23.28;49.48;101682.25;6102574;23;19917;-75
2022/05/19 10:14:02;;;;;;;;;;;;;;;23.26;49.74;101674.44;6102906;23;19913;-75
2022/05/19 10:16:45;;;;;;;;;;;;;;;23.25;49.84;101669.19;6102468;23;19963;-75
2022/05/19 10:19:14;;;;;;;;;;;;;;;23.25;49.83;101659.56;6102561;23;19916;-75
2022/05/19 10:21:39;;;;;;;;;;;;;;;23.25;49.56;101661.31;6128542;23;19964;-75
2022/05/19 10:24:13;;;;;;;;;;;;;;;23.25;49.83;101679.69;6128660;23;19909;-74
2022/05/19 10:26:51;;;;;;;;;;;;;;;23.22;49.84;101701.63;6128086;23;19916;-75
2022/05/19 10:32:55;;;;;;;;;;;;;;;23.12;50.16;101734.22;6128334;23;19980;-74
2022/05/19 10:35:33;;;;;;;;;;;;;;;23.08;50.03;101759.69;6115672;23;19915;-74
2022/05/19 10:38:10;;;;;;;;;;;;;;;23.05;50.24;101761.47;6102336;23;19988;-74
2022/05/19 10:40:51;;;;;;;;;;;;;;;23.04;50.19;101784.25;6128463;23;20237;-74
2022/05/19 10:43:19;;;;;;;;;;;;;;;23.02;50.57;101820.16;6128294;23;19909;-75
2022/05/19 10:45:47;;;;;;;;;;;;;;;23.03;50.27;101842.03;6128377;23;19916;-75
2022/05/19 10:48:16;;;;;;;;;;;;;;;22.98;50.43;101819.31;6102706;23;19936;-76
2022/05/19 10:50:46;;;;;;;;;;;;;;;22.97;50.52;101801.84;6128188;23;20246;-74
2022/05/19 10:53:18;;;;;;;;;;;;;;;22.98;50.12;101813.19;6128360;23;19919;-75
2022/05/19 10:56:02;;;;;;;;;;;;;;;22.98;50.38;101845.56;6102116;23;20233;-75
2022/05/19 10:58:45;;;;;;;;;;;;;;;23.01;50.17;101849.91;6128502;23;19909;-75
2022/05/19 11:01:20;;;;;;;;;;;;;;;22.98;50.23;101821.94;6128030;23;19915;-75
2022/05/19 11:03:54;;;;;;;;;;;;;;;22.98;50.34;101818.44;6102185;23;19960;-74
2022/05/19 11:06:19;;;;;;;;;;;;;;;22.97;50.32;101814.06;6128127;23;19909;-76
2022/05/19 11:09:03;;;;;;;;;;;;;;;22.95;50.11;101805.34;6101883;23;19984;-76
2022/05/19 11:11:38;;;;;;;;;;;;;;;22.93;50.40;101826.41;6127994;23;19924;-76
2022/05/19 11:14:03;;;;;;;;;;;;;;;22.92;50.28;101853.50;6128107;23;19916;-76
2022/05/19 11:16:39;;;;;;;;;;;;;;;22.90;50.45;101868.41;6102307;23;19959;-75
2022/05/19 11:19:27;;;;;;;;;;;;;;;22.92;50.49;101892.03;6127994;23;20215;-75
2022/05/19 11:22:01;;;;;;;;;;;;;;;22.90;50.36;101925.31;6094074;23;19909;-76
2022/05/19 11:24:26;;;;;;;;;;;;;;;22.89;50.21;101924.44;6128309;23;19915;-75
2022/05/19 11:26:58;;;;;;;;;;;;;;;22.87;50.56;101922.75;6128002;23;19979;-76
2022/05/19 11:29:26;;;;;;;;;;;;;;;22.87;50.58;101934.09;6127775;23;19909;-76
2022/05/19 11:32:04;;;;;;;;;;;;;;;22.87;50.47;101925.38;6101656;23;19972;-76
2022/05/19 11:34:30;;;;;;;;;;;;;;;22.86;50.50;101947.22;6102448;23;20233;-75
2022/05/19 11:36:58;;;;;;;;;;;;;;;22.84;50.26;101939.38;6127645;23;20286;-75
2022/05/19 11:39:28;;;;;;;;;;;;;;;22.84;50.40;101943.75;6101830;23;19918;-76
2022/05/19 11:41:55;;;;;;;;;;;;;;;22.83;50.42;101924.53;6128150;23;20336;-75
2022/05/19 11:44:26;;;;;;;;;;;;;;;22.83;50.66;101926.28;6101531;23;19909;-76
2022/05/19 11:47:15;;;;;;;;;;;;;;;22.82;50.63;101928.06;6101639;23;19913;-76
2022/05/19 11:55:32;;;;;;;;;;;;;;;22.82;50.55;101911.41;6127526;23;19931;-76
2022/05/19 11:58:09;;;;;;;;;;;;;;;22.80;50.73;101895.72;6101862;23;19913;-76
2022/05/19 12:00:37;;;;;;;;;;;;;;;22.82;50.48;101885.19;6101677;23;19916;-75
2022/05/19 12:03:09;;;;;;;;;;;;;;;22.79;50.63;101865.97;6127691;23;19909;-76
2022/05/19 12:05:50;;;;;;;;;;;;;;;22.79;50.67;101847.59;6127714;23;19983;-76
2022/05/19 12:08:28;;;;;;;;;;;;;;;22.79;50.49;101821.34;6101653;23;20285;-76
2022/05/19 12:10:56;;;;;;;;;;;;;;;22.79;50.79;101823.97;6101294;23;20322;-75
2022/05/19 12:13:24;;;;;;;;;;;;;;;22.80;50.38;101840.59;6126040;23;19995;-76
2022/05/19 12:15:53;;;;;;;;;;;;;;;22.78;50.78;101835.38;6127382;23;19912;-76
2022/05/19 12:18:24;;;;;;;;;;;;;;;22.79;50.79;101828.34;6127769;23;19999;-75
2022/05/19 12:20:51;;;;;;;;;;;;;;;22.78;50.63;101824.03;6101674;23;19909;-76
2022/05/19 12:23:28;;;;;;;;;;;;;;;22.77;50.50;101825.75;6127467;23;20333;-76
2022/05/19 12:25:59;;;;;;;;;;;;;;;22.78;50.48;101821.41;6127489;23;19909;-76
2022/05/19 12:28:25;;;;;;;;;;;;;;;22.77;50.51;101803.91;6127519;23;19908;-76
2022/05/19 12:33:48;;;;;;;;;;;;;;;22.76;50.69;101797.78;6127574;23;20000;-76
2022/05/19 12:36:17;;;;;;;;;;;;;;;22.76;50.42;101783.81;6101444;23;19956;-76
2022/05/19 12:38:44;;;;;;;;;;;;;;;22.76;50.36;101776.81;6127174;23;19913;-76
2022/05/19 12:41:29;;;;;;;;;;;;;;;22.76;50.39;101773.31;6127376;23;19963;-76
2022/05/19 12:43:56;;;;;;;;;;;;;;;22.75;50.51;101748.81;6101291;23;19909;-76
2022/05/19 12:46:34;;;;;;;;;;;;;;;22.75;50.52;101743.56;6101325;23;19912;-76
2022/05/19 12:49:14;;;;;;;;;;;;;;;22.74;50.45;101736.59;6101770;23;19909;-75
2022/05/19 12:51:46;;;;;;;;;;;;;;;22.76;50.41;101754.94;6129156;23;19916;-75
2022/05/19 12:54:11;;;;;;;;;;;;;;;22.76;50.34;101771.56;6129265;23;20034;-76
2022/05/19 12:56:46;;;;;;;;;;;;;;;22.77;50.59;101770.66;6129131;23;20267;-76
2022/05/19 12:59:31;;;;;;;;;;;;;;;22.78;50.38;101769.78;6103285;23;19936;-76